Terminal Aerodrome Forecast
Issued by NWS

Home | Current Version | Previous Version | Text Only | Print | Product List | Glossary On
Versions: 1 2 3 4 5 6 7 8 9 10 11 12
003
FTUS43 KBIS 070525
TAFJMS
TAF
KJMS 070525Z 0706/0806 30025G38KT P6SM VCSH BKN035 OVC060
     FM070900 30028G38KT P6SM OVC035
     FM071700 32032G48KT 6SM -SHSN BLSN OVC020
     FM080300 33033G46KT P6SM OVC035=

USA.gov is the U.S. government's official web portal to all federal, state and local government web resources and services.